Time;durP1;ratioP1;P1;durP2;ratioP2;P2;SDS_P1;SDS_P2;PMS_P1;PMS_P2;Temp;Humidity;BMP_temperature;BMP_pressure;BME280_temperature;BME280_humidity;BME280_pressure;Samples;Min_cycle;Max_cycle;Signal;HPM_P1;HPM_P2
2021/03/30 00:00:53;;;;;;;2.93;2.47;;;;;;;6.52;100.00;97586.94;5052501;28;20680;-88
2021/03/30 00:03:21;;;;;;;5.67;3.53;;;;;;;6.29;100.00;97591.03;5052275;28;20288;-88
2021/03/30 00:08:23;;;;;;;3.30;2.77;;;;;;;5.82;100.00;97593.13;5161977;22;20244;-87
2021/03/30 00:10:50;;;;;;;4.27;3.03;;;;;;;5.76;100.00;97590.88;5052633;28;20202;-88
2021/03/30 00:13:17;;;;;;;3.13;2.50;;;;;;;5.79;100.00;97587.25;5052661;28;20194;-86
2021/03/30 00:15:44;;;;;;;3.77;2.80;;;;;;;5.83;100.00;97586.97;5052669;28;20293;-87
2021/03/30 00:18:11;;;;;;;3.83;3.13;;;;;;;5.81;100.00;97582.75;5056515;28;20198;-87
2021/03/30 00:20:39;;;;;;;4.53;2.70;;;;;;;5.80;100.00;97581.94;5056521;28;20282;-86
2021/03/30 00:23:06;;;;;;;3.70;2.97;;;;;;;5.70;100.00;97583.44;5056396;28;20598;-87
2021/03/30 00:25:32;;;;;;;3.03;2.50;;;;;;;5.80;100.00;97574.09;5056425;28;20241;-87
2021/03/30 00:27:59;;;;;;;3.17;2.87;;;;;;;6.10;100.00;97575.75;5056289;28;20202;-88
2021/03/30 00:30:27;;;;;;;7.10;3.37;;;;;;;6.24;100.00;97569.63;5056580;28;20330;-89
2021/03/30 00:32:54;;;;;;;9.13;4.43;;;;;;;6.05;100.00;97570.78;5056273;28;20205;-88
2021/03/30 00:35:21;;;;;;;15.20;6.90;;;;;;;5.78;100.00;97572.50;5055993;28;20231;-88
2021/03/30 00:37:49;;;;;;;14.30;7.20;;;;;;;5.77;100.00;97560.41;5055835;28;20288;-89
2021/03/30 00:40:17;;;;;;;8.37;5.97;;;;;;;5.95;100.00;97560.09;5055848;28;20198;-87
2021/03/30 00:42:44;;;;;;;7.40;4.03;;;;;;;5.81;100.00;97564.50;5056121;28;20582;-89
2021/03/30 00:45:12;;;;;;;5.70;3.67;;;;;;;5.40;100.00;97560.09;5055829;28;20204;-88
2021/03/30 00:47:43;;;;;;;2.80;2.37;;;;;;;5.57;100.00;97559.88;5055760;28;20190;-88
2021/03/30 00:50:14;;;;;;;3.87;2.93;;;;;;;6.02;100.00;97564.94;5055783;28;20190;-89
2021/03/30 00:52:43;;;;;;;5.47;2.97;;;;;;;5.75;100.00;97550.09;5055690;28;20205;-89
2021/03/30 00:55:12;;;;;;;3.00;2.80;;;;;;;5.79;100.00;97555.94;5055983;28;20213;-88
2021/03/30 00:57:39;;;;;;;4.17;2.87;;;;;;;5.67;100.00;97560.16;5055853;28;20234;-89
2021/03/30 01:00:08;;;;;;;7.13;4.70;;;;;;;5.32;100.00;97544.09;5055685;28;20198;-89
2021/03/30 01:02:36;;;;;;;7.07;4.37;;;;;;;5.44;100.00;97538.97;5055867;28;20232;-88
2021/03/30 01:05:03;;;;;;;7.63;4.43;;;;;;;5.44;100.00;97552.00;5055713;28;20292;-89
2021/03/30 01:07:30;;;;;;;4.00;3.03;;;;;;;5.45;100.00;97540.63;5055298;28;20236;-89
2021/03/30 01:10:08;;;;;;;5.27;3.50;;;;;;;5.61;100.00;97534.44;5055364;28;20289;-89
2021/03/30 01:13:04;;;;;;;3.83;3.17;;;;;;;5.58;100.00;97539.88;5055414;28;20276;-89
2021/03/30 01:15:38;;;;;;;3.50;3.13;;;;;;;5.47;100.00;97546.59;5055236;28;20677;-89
2021/03/30 01:18:12;;;;;;;3.47;3.17;;;;;;;5.48;100.00;97540.44;5055214;28;20303;-89
2021/03/30 01:21:32;;;;;;;4.50;3.20;;;;;;;5.44;100.00;97544.19;5055185;28;20228;-89
2021/03/30 01:24:12;;;;;;;3.33;2.57;;;;;;;5.52;100.00;97541.09;5055477;28;20186;-89
2021/03/30 01:26:50;;;;;;;5.53;2.57;;;;;;;5.58;100.00;97550.31;5055152;28;20186;-89
2021/03/30 01:29:41;;;;;;;7.03;3.20;;;;;;;5.55;100.00;97547.91;5054249;28;20277;-89
2021/03/30 01:32:19;;;;;;;3.13;2.80;;;;;;;5.53;100.00;97547.13;5055234;28;20631;-89
2021/03/30 01:34:48;;;;;;;2.90;2.50;;;;;;;5.61;100.00;97540.53;5055075;28;20276;-90
2021/03/30 01:37:17;;;;;;;3.83;3.57;;;;;;;5.30;100.00;97543.34;5055015;28;20236;-89
2021/03/30 01:39:46;;;;;;;3.30;2.47;;;;;;;5.36;100.00;97536.00;5055280;28;20269;-90
2021/03/30 01:42:13;;;;;;;3.50;2.97;;;;;;;5.40;100.00;97529.66;5054773;28;20245;-90
2021/03/30 01:44:42;;;;;;;3.67;3.33;;;;;;;5.59;100.00;97538.94;5054980;28;20574;-90
2021/03/30 01:47:09;;;;;;;4.40;3.00;;;;;;;5.44;100.00;97538.97;5054765;28;20200;-90
2021/03/30 01:49:39;;;;;;;3.67;3.07;;;;;;;5.63;100.00;97533.44;5054475;28;20197;-89
2021/03/30 01:52:08;;;;;;;3.27;2.83;;;;;;;5.38;100.00;97535.91;5054943;28;20193;-89
2021/03/30 01:54:36;;;;;;;3.50;3.20;;;;;;;5.40;100.00;97542.72;5054781;28;20271;-89
2021/03/30 01:57:06;;;;;;;4.70;3.30;;;;;;;5.40;100.00;97541.84;5054489;28;20785;-89
2021/03/30 01:59:34;;;;;;;3.27;2.93;;;;;;;4.92;100.00;97539.56;5054666;28;20205;-88
2021/03/30 02:02:03;;;;;;;4.17;3.30;;;;;;;5.14;100.00;97541.69;5054773;28;20649;-89
2021/03/30 02:04:31;;;;;;;4.60;3.10;;;;;;;5.23;100.00;97537.69;5054376;28;20198;-88
2021/03/30 02:06:59;;;;;;;3.30;2.83;;;;;;;5.36;100.00;97538.59;5053963;28;20229;-88
2021/03/30 02:09:30;;;;;;;6.90;2.80;;;;;;;5.35;100.00;97536.94;5054603;28;20316;-89
2021/03/30 02:11:59;;;;;;;3.73;2.97;;;;;;;5.19;100.00;97536.19;5054406;28;20225;-88
2021/03/30 02:14:27;;;;;;;3.73;2.73;;;;;;;5.16;100.00;97533.75;5054432;28;20197;-89
2021/03/30 02:16:59;;;;;;;5.97;2.60;;;;;;;5.21;100.00;97526.53;5053958;28;20263;-89
2021/03/30 02:19:36;;;;;;;3.07;2.70;;;;;;;4.97;100.00;97529.69;5053992;28;20197;-89
2021/03/30 02:22:08;;;;;;;3.13;2.83;;;;;;;4.99;100.00;97532.22;5053968;28;20276;-89
2021/03/30 02:24:36;;;;;;;3.07;2.83;;;;;;;4.94;100.00;97532.47;5053955;28;20232;-88
2021/03/30 02:27:08;;;;;;;3.87;3.00;;;;;;;4.77;100.00;97535.25;5054169;28;20596;-89
2021/03/30 02:29:38;;;;;;;5.17;3.50;;;;;;;4.67;100.00;97534.13;5054103;28;20599;-88
2021/03/30 02:32:09;;;;;;;4.03;3.37;;;;;;;4.84;100.00;97536.56;5054105;28;20296;-89
2021/03/30 02:34:39;;;;;;;4.70;3.33;;;;;;;4.63;100.00;97545.66;5053766;28;20273;-89
2021/03/30 02:37:07;;;;;;;5.17;3.40;;;;;;;4.61;100.00;97527.53;5054108;28;20263;-88
2021/03/30 02:39:35;;;;;;;6.17;3.33;;;;;;;4.69;100.00;97538.31;5052761;28;20206;-89
2021/03/30 02:42:03;;;;;;;4.40;3.77;;;;;;;4.98;100.00;97546.97;5053723;28;20205;-89
2021/03/30 02:44:31;;;;;;;3.73;3.43;;;;;;;5.37;100.00;97547.25;5053953;28;20604;-87
2021/03/30 02:46:59;;;;;;;3.87;3.57;;;;;;;5.48;100.00;97550.06;5053485;28;20245;-90
2021/03/30 02:49:27;;;;;;;5.70;3.43;;;;;;;5.68;100.00;97544.41;5053493;28;20293;-88
2021/03/30 02:51:57;;;;;;;6.57;3.93;;;;;;;5.79;100.00;97548.97;5053444;28;20202;-89
2021/03/30 02:54:25;;;;;;;4.50;3.73;;;;;;;5.89;100.00;97546.59;5053476;28;20194;-89
2021/03/30 02:56:54;;;;;;;4.90;3.57;;;;;;;5.85;100.00;97538.09;5053292;28;20313;-90
2021/03/30 02:59:22;;;;;;;5.87;4.03;;;;;;;5.81;100.00;97536.63;5053232;28;20205;-89
2021/03/30 03:01:49;;;;;;;4.57;4.07;;;;;;;5.90;100.00;97541.28;5053713;28;20297;-89
2021/03/30 03:04:16;;;;;;;4.90;4.00;;;;;;;5.81;100.00;97539.25;5053405;28;20223;-89
2021/03/30 03:06:44;;;;;;;3.73;3.43;;;;;;;5.87;100.00;97544.06;5052883;28;20230;-91
2021/03/30 03:09:12;;;;;;;4.77;3.10;;;;;;;6.02;100.00;97549.28;5053370;28;20210;-89
2021/03/30 03:11:41;;;;;;;6.30;4.23;;;;;;;5.93;100.00;97535.06;5053165;28;20190;-89
2021/03/30 03:14:10;;;;;;;6.63;4.23;;;;;;;6.10;100.00;97545.25;5052763;28;20190;-90
2021/03/30 03:16:38;;;;;;;7.23;4.33;;;;;;;6.01;100.00;97545.00;5053193;28;20316;-89
2021/03/30 03:19:07;;;;;;;4.73;3.43;;;;;;;5.97;100.00;97544.34;5053130;28;20197;-89
2021/03/30 03:21:35;;;;;;;7.77;3.90;;;;;;;6.04;100.00;97539.59;5053163;28;20193;-89
2021/03/30 03:24:03;;;;;;;3.67;3.23;;;;;;;6.00;100.00;97533.72;5052273;28;20280;-88
2021/03/30 03:26:31;;;;;;;3.30;3.00;;;;;;;5.89;100.00;97547.44;5053147;28;20193;-88
2021/03/30 03:28:58;;;;;;;4.07;3.63;;;;;;;5.95;100.00;97543.59;5052784;28;20205;-88
2021/03/30 03:31:29;;;;;;;4.87;4.30;;;;;;;5.90;100.00;97546.50;5053082;28;20225;-89
2021/03/30 03:34:01;;;;;;;4.00;3.70;;;;;;;5.95;100.00;97543.59;5052981;28;20627;-88
2021/03/30 03:36:37;;;;;;;6.80;4.37;;;;;;;5.94;100.00;97545.38;5052562;28;20217;-89
2021/03/30 03:39:05;;;;;;;4.83;4.33;;;;;;;5.98;100.00;97547.81;5052757;28;20671;-88
2021/03/30 03:41:33;;;;;;;5.83;3.90;;;;;;;5.78;100.00;97543.81;5052519;28;20288;-90
2021/03/30 03:44:00;;;;;;;5.20;3.60;;;;;;;5.87;100.00;97536.25;5052771;28;20286;-89
2021/03/30 03:46:27;;;;;;;4.50;3.90;;;;;;;5.87;100.00;97540.63;5052958;28;20288;-88
2021/03/30 03:48:54;;;;;;;4.63;3.60;;;;;;;5.82;100.00;97540.06;5052811;28;20642;-89
2021/03/30 03:51:22;;;;;;;6.03;4.00;;;;;;;5.87;100.00;97538.84;5054112;28;20242;-89
2021/03/30 03:53:51;;;;;;;3.93;3.63;;;;;;;5.91;100.00;97542.09;5056805;28;20259;-91
2021/03/30 03:56:24;;;;;;;4.00;3.23;;;;;;;5.88;100.00;97543.13;5056677;28;20225;-90
2021/03/30 03:58:56;;;;;;;4.20;3.73;;;;;;;5.74;100.00;97551.00;5056869;28;20214;-88
2021/03/30 04:01:32;;;;;;;5.80;3.97;;;;;;;5.71;100.00;97545.97;5056898;28;20261;-89
2021/03/30 04:04:02;;;;;;;4.77;3.80;;;;;;;5.84;100.00;97539.06;5056667;28;20178;-89
2021/03/30 04:06:35;;;;;;;7.00;4.50;;;;;;;5.83;100.00;97547.00;5056389;28;20186;-84
2021/03/30 04:09:10;;;;;;;6.73;3.93;;;;;;;5.88;100.00;97548.34;5056671;28;20186;-88
2021/03/30 04:11:37;;;;;;;6.13;3.87;;;;;;;5.74;100.00;97551.00;5056347;28;20272;-88
2021/03/30 04:14:06;;;;;;;4.27;3.27;;;;;;;5.77;100.00;97544.75;5056735;28;20225;-88
2021/03/30 04:16:33;;;;;;;5.40;3.87;;;;;;;5.75;100.00;97554.44;5056411;28;20253;-88
2021/03/30 04:18:59;;;;;;;6.80;4.20;;;;;;;5.67;100.00;97554.94;5056621;28;20730;-88
2021/03/30 04:21:31;;;;;;;6.90;4.57;;;;;;;5.81;100.00;97554.06;5056606;28;20280;-88
2021/03/30 04:23:58;;;;;;;5.93;4.50;;;;;;;5.58;100.00;97555.53;5056489;28;20568;-89
2021/03/30 04:26:25;;;;;;;4.30;3.90;;;;;;;5.67;100.00;97555.75;5056297;28;20198;-88
2021/03/30 04:28:52;;;;;;;4.47;3.67;;;;;;;5.73;100.00;97552.78;5055709;28;20200;-89
2021/03/30 04:31:20;;;;;;;3.90;3.23;;;;;;;5.69;100.00;97555.69;5055273;28;20249;-87
2021/03/30 04:33:47;;;;;;;5.30;4.07;;;;;;;5.35;100.00;97549.13;5055449;28;20272;-88
2021/03/30 04:36:14;;;;;;;5.57;3.67;;;;;;;5.62;100.00;97551.78;5056114;28;20244;-88
2021/03/30 04:38:41;;;;;;;5.60;4.13;;;;;;;5.43;100.00;97558.13;5056014;28;20281;-89
2021/03/30 04:41:08;;;;;;;8.90;5.10;;;;;;;5.32;100.00;97544.94;5055850;28;20669;-88
2021/03/30 04:43:35;;;;;;;5.13;4.37;;;;;;;5.26;100.00;97555.72;5056116;28;20201;-89
2021/03/30 04:46:02;;;;;;;4.37;3.97;;;;;;;5.00;100.00;97550.34;5055961;28;20193;-88
2021/03/30 04:48:30;;;;;;;5.03;4.43;;;;;;;5.08;100.00;97549.03;5056004;28;20232;-88
2021/03/30 04:50:57;;;;;;;5.53;4.10;;;;;;;5.15;100.00;97540.75;5056316;28;20202;-88
2021/03/30 04:53:24;;;;;;;5.30;4.77;;;;;;;4.87;100.00;97540.75;5055742;28;20293;-88
2021/03/30 04:55:51;;;;;;;6.90;5.70;;;;;;;5.02;100.00;97542.44;5055800;28;20198;-89
2021/03/30 04:58:17;;;;;;;11.57;8.33;;;;;;;5.25;100.00;97541.88;5055642;28;20282;-88
2021/03/30 05:00:44;;;;;;;7.93;5.57;;;;;;;5.40;100.00;97552.28;5055612;28;20194;-89
2021/03/30 05:03:11;;;;;;;6.73;5.03;;;;;;;5.61;100.00;97547.50;5054505;28;20233;-89
2021/03/30 05:05:39;;;;;;;7.60;4.57;;;;;;;5.43;100.00;97550.31;5055546;28;20734;-88
2021/03/30 05:08:06;;;;;;;7.50;5.90;;;;;;;5.29;100.00;97547.72;5055145;28;20249;-88
2021/03/30 05:10:33;;;;;;;6.37;5.63;;;;;;;5.22;100.00;97549.03;5055342;28;20198;-89
2021/03/30 05:13:00;;;;;;;7.83;6.43;;;;;;;5.51;100.00;97549.84;5055242;28;20273;-89
2021/03/30 05:15:27;;;;;;;6.33;5.13;;;;;;;5.53;100.00;97536.72;5055341;28;20193;-88
2021/03/30 05:17:54;;;;;;;8.67;6.60;;;;;;;5.75;100.00;97544.00;5055668;28;20272;-87
2021/03/30 05:20:21;;;;;;;8.00;5.20;;;;;;;5.81;100.00;97535.81;5055445;28;20193;-89
2021/03/30 05:22:49;;;;;;;5.37;4.87;;;;;;;5.82;100.00;97538.31;5055163;28;20230;-89
2021/03/30 05:25:16;;;;;;;5.93;5.07;;;;;;;5.39;100.00;97530.59;5055359;28;20200;-89
2021/03/30 05:27:43;;;;;;;7.77;5.43;;;;;;;5.47;100.00;97519.66;5055046;28;20194;-88
2021/03/30 05:30:12;;;;;;;6.27;4.77;;;;;;;5.77;100.00;97510.84;5054909;28;20288;-89
2021/03/30 05:32:39;;;;;;;6.20;4.33;;;;;;;5.70;100.00;97510.41;5055276;28;20613;-88
2021/03/30 05:35:08;;;;;;;9.90;5.80;;;;;;;5.85;100.00;97501.56;5054858;28;20193;-89
2021/03/30 05:37:35;;;;;;;9.63;5.47;;;;;;;5.94;100.00;97494.97;5054678;28;20258;-88
2021/03/30 05:40:05;;;;;;;6.93;5.40;;;;;;;6.05;100.00;97489.06;5055151;28;20284;-89
2021/03/30 05:42:33;;;;;;;11.13;6.67;;;;;;;6.13;100.00;97478.94;5055029;28;20202;-88
2021/03/30 05:45:00;;;;;;;23.83;16.37;;;;;;;6.13;100.00;97477.19;5055342;28;20261;-89
2021/03/30 05:47:28;;;;;;;11.07;6.83;;;;;;;6.27;100.00;97478.88;5054841;28;20242;-88
2021/03/30 05:49:55;;;;;;;29.43;22.30;;;;;;;6.13;100.00;97477.19;5054697;28;20244;-88
2021/03/30 05:52:31;;;;;;;9.27;6.67;;;;;;;6.32;100.00;97484.63;5054638;28;20744;-88
2021/03/30 05:54:58;;;;;;;9.30;6.50;;;;;;;6.46;100.00;97480.25;5054764;28;20555;-88
2021/03/30 05:57:29;;;;;;;7.27;5.70;;;;;;;6.54;100.00;97489.22;5054451;28;20222;-89
2021/03/30 05:59:58;;;;;;;7.17;5.03;;;;;;;6.52;100.00;97485.91;5054484;28;20202;-87
2021/03/30 06:02:29;;;;;;;11.17;6.37;;;;;;;6.68;100.00;97485.69;5054326;28;20281;-89
2021/03/30 06:04:58;;;;;;;7.73;5.50;;;;;;;6.77;100.00;97484.22;5054696;28;20232;-88
2021/03/30 06:07:25;;;;;;;7.47;6.00;;;;;;;6.79;100.00;97493.66;5054168;28;20234;-89
2021/03/30 06:09:52;;;;;;;8.23;5.90;;;;;;;6.90;100.00;97480.66;5054716;28;20661;-88
2021/03/30 06:12:19;;;;;;;12.30;5.70;;;;;;;6.96;100.00;97489.00;5054739;28;20261;-89
2021/03/30 06:14:48;;;;;;;7.67;6.27;;;;;;;6.98;100.00;97487.97;5054086;28;20186;-88
2021/03/30 06:17:16;;;;;;;7.13;5.77;;;;;;;7.15;100.00;97487.63;5054051;28;20230;-89
2021/03/30 06:19:51;;;;;;;6.77;5.60;;;;;;;7.36;100.00;97498.34;5054187;28;20198;-89
2021/03/30 06:22:19;;;;;;;7.27;5.57;;;;;;;7.43;100.00;97496.16;5054152;28;20248;-89
2021/03/30 06:24:46;;;;;;;10.17;6.97;;;;;;;7.34;100.00;97489.81;5054081;28;20320;-89
2021/03/30 06:27:28;;;;;;;10.90;6.63;;;;;;;7.55;100.00;97481.34;5053989;28;20198;-89
2021/03/30 06:29:58;;;;;;;12.37;7.10;;;;;;;7.52;100.00;97497.28;5053193;28;20182;-88
2021/03/30 06:32:26;;;;;;;12.17;7.47;;;;;;;7.47;100.00;97481.06;5054279;28;20625;-88
2021/03/30 06:34:57;;;;;;;8.47;6.93;;;;;;;7.59;100.00;97482.81;5053688;28;20202;-88
2021/03/30 06:37:36;;;;;;;11.67;7.73;;;;;;;7.61;100.00;97481.75;5053948;28;20225;-88
2021/03/30 06:40:10;;;;;;;7.80;6.77;;;;;;;7.93;100.00;97506.53;5053875;28;20292;-88
2021/03/30 06:42:40;;;;;;;11.77;7.57;;;;;;;7.76;100.00;97495.53;5054029;28;20229;-88
2021/03/30 06:45:19;;;;;;;12.90;9.87;;;;;;;7.88;100.00;97503.41;5053919;28;20197;-89
2021/03/30 06:47:48;;;;;;;12.87;8.73;;;;;;;7.99;100.00;97509.53;5053651;28;20192;-88
2021/03/30 06:50:25;;;;;;;10.73;8.23;;;;;;;8.06;100.00;97517.78;5053585;28;20229;-87
2021/03/30 06:52:52;;;;;;;8.23;6.87;;;;;;;8.15;100.00;97521.53;5053474;28;20193;-88
2021/03/30 06:55:27;;;;;;;14.30;7.27;;;;;;;8.28;100.00;97515.25;5053749;28;20280;-88
2021/03/30 06:58:00;;;;;;;8.50;7.60;;;;;;;8.22;100.00;97514.88;5053547;28;20228;-88
2021/03/30 07:00:32;;;;;;;9.37;6.67;;;;;;;8.54;100.00;97522.97;5053379;28;20665;-89
2021/03/30 07:03:01;;;;;;;10.10;6.60;;;;;;;8.62;100.00;97518.00;5053300;28;20218;-89
2021/03/30 07:05:34;;;;;;;8.20;7.40;;;;;;;8.76;100.00;97523.06;5053321;28;20728;-89
2021/03/30 07:08:03;;;;;;;10.50;7.37;;;;;;;8.96;100.00;97523.31;5053147;28;20741;-88
2021/03/30 07:10:31;;;;;;;11.80;8.93;;;;;;;9.30;100.00;97529.41;5053791;28;20209;-88
2021/03/30 07:12:58;;;;;;;9.67;8.10;;;;;;;9.36;100.00;97538.59;5053079;28;20241;-89
2021/03/30 07:15:26;;;;;;;14.00;7.87;;;;;;;9.25;100.00;97548.13;5053044;28;20284;-89
2021/03/30 07:18:02;;;;;;;9.60;8.00;;;;;;;9.76;100.00;97544.97;5052901;28;20308;-88
2021/03/30 07:20:33;;;;;;;12.20;7.30;;;;;;;9.53;100.00;97561.72;5053412;28;20584;-89
2021/03/30 07:23:04;;;;;;;11.83;8.00;;;;;;;9.46;100.00;97553.50;5053264;28;20198;-89
2021/03/30 07:25:35;;;;;;;8.53;7.63;;;;;;;9.58;100.00;97556.09;5052855;28;20228;-88
2021/03/30 07:28:08;;;;;;;15.67;7.87;;;;;;;9.80;100.00;97563.09;5052818;28;20178;-89
2021/03/30 07:30:38;;;;;;;8.83;7.10;;;;;;;10.15;100.00;97565.56;5052972;28;20244;-89
2021/03/30 07:33:24;;;;;;;8.07;6.87;;;;;;;10.43;100.00;97564.16;5053022;28;20229;-88
2021/03/30 07:35:53;;;;;;;13.50;8.57;;;;;;;10.34;100.00;97573.63;5053172;28;20235;-89
2021/03/30 07:38:21;;;;;;;8.33;7.43;;;;;;;10.21;100.00;97579.00;5052716;28;20704;-89
2021/03/30 07:40:49;;;;;;;11.10;8.67;;;;;;;10.62;100.00;97585.34;5052691;28;20194;-89
2021/03/30 07:43:25;;;;;;;12.47;9.53;;;;;;;10.76;100.00;97581.56;5053054;28;20575;-88
2021/03/30 07:45:54;;;;;;;9.87;7.83;;;;;;;11.00;100.00;97583.94;5052715;28;20189;-89
2021/03/30 07:48:24;;;;;;;10.57;7.97;;;;;;;10.87;100.00;97584.13;5052698;28;20225;-89
2021/03/30 07:50:55;;;;;;;9.20;8.23;;;;;;;10.84;100.00;97599.31;5052753;28;20229;-88
2021/03/30 07:53:42;;;;;;;12.10;8.30;;;;;;;10.92;100.00;97604.81;5052613;28;20190;-89
2021/03/30 07:56:11;;;;;;;10.07;7.67;;;;;;;11.09;100.00;97603.41;5052645;28;20281;-89
2021/03/30 07:58:39;;;;;;;8.47;6.83;;;;;;;11.46;100.00;97603.72;5052727;28;20312;-89
2021/03/30 08:01:07;;;;;;;10.53;7.60;;;;;;;11.67;100.00;97598.41;5052996;28;20603;-89
2021/03/30 08:03:37;;;;;;;11.03;8.00;;;;;;;11.81;100.00;97599.84;5052842;28;20641;-89
2021/03/30 08:06:23;;;;;;;14.27;8.90;;;;;;;11.65;100.00;97605.63;5052557;28;20289;-89
2021/03/30 08:08:58;;;;;;;9.60;8.30;;;;;;;12.28;100.00;97600.13;5052553;28;20228;-89
2021/03/30 08:12:01;;;;;;;9.83;8.13;;;;;;;11.98;100.00;97601.84;5052596;28;20194;-88
2021/03/30 08:14:41;;;;;;;10.13;8.40;;;;;;;12.56;100.00;97601.13;5052827;28;20275;-89
2021/03/30 08:17:11;;;;;;;10.53;7.93;;;;;;;12.54;100.00;97600.44;5052314;28;20301;-89
2021/03/30 08:19:58;;;;;;;10.83;8.67;;;;;;;12.74;100.00;97598.63;5052657;28;20182;-89
2021/03/30 08:22:29;;;;;;;14.07;9.63;;;;;;;12.67;100.00;97603.63;5052662;28;20602;-89
2021/03/30 08:24:58;;;;;;;12.70;9.10;;;;;;;12.88;100.00;97602.63;5052489;28;20188;-89
2021/03/30 08:27:39;;;;;;;10.27;8.73;;;;;;;13.11;100.00;97611.09;5052460;28;20198;-88
2021/03/30 08:30:14;;;;;;;10.37;7.90;;;;;;;13.25;100.00;97603.59;5052392;28;20290;-88
2021/03/30 08:32:45;;;;;;;10.53;9.37;;;;;;;13.43;100.00;97597.56;5052213;28;20208;-88
2021/03/30 08:35:34;;;;;;;11.83;9.17;;;;;;;13.44;100.00;97604.50;5052593;28;20197;-89
2021/03/30 08:38:02;;;;;;;10.23;9.13;;;;;;;13.18;100.00;97599.00;5054650;28;20228;-89
2021/03/30 08:40:44;;;;;;;13.50;9.07;;;;;;;13.63;100.00;97599.16;5056283;28;20204;-88
2021/03/30 08:43:22;;;;;;;11.40;9.33;;;;;;;13.72;100.00;97592.19;5055942;28;20195;-89
2021/03/30 08:46:16;;;;;;;9.83;7.63;;;;;;;13.65;100.00;97602.50;5055889;28;20197;-87
2021/03/30 08:48:48;;;;;;;10.53;8.37;;;;;;;14.31;100.00;97596.19;5031903;28;20201;-89
2021/03/30 08:51:18;;;;;;;9.63;8.27;;;;;;;14.70;100.00;97594.09;5055979;28;20657;-90
2021/03/30 08:53:46;;;;;;;11.47;8.77;;;;;;;13.54;100.00;97592.09;5055847;28;20202;-89
2021/03/30 08:56:14;;;;;;;10.27;8.43;;;;;;;14.40;100.00;97589.13;5055691;28;20196;-88
2021/03/30 08:58:48;;;;;;;10.67;8.27;;;;;;;14.65;100.00;97590.22;5055903;28;20280;-89
2021/03/30 09:01:16;;;;;;;10.97;9.03;;;;;;;14.72;100.00;97586.84;5055851;28;20662;-89
2021/03/30 09:03:43;;;;;;;10.50;8.93;;;;;;;14.49;100.00;97602.31;5055485;28;20205;-90
2021/03/30 09:06:30;;;;;;;9.13;7.80;;;;;;;14.52;100.00;97580.03;5055543;28;20263;-89
2021/03/30 09:08:56;;;;;;;10.47;9.40;;;;;;;14.64;100.00;97578.81;5055799;28;20193;-89
2021/03/30 09:11:25;;;;;;;11.53;8.80;;;;;;;14.90;100.00;97581.53;5055548;28;20206;-88
2021/03/30 09:14:04;;;;;;;12.50;9.13;;;;;;;15.15;100.00;97576.41;5055322;28;20308;-89
2021/03/30 09:16:32;;;;;;;10.87;9.23;;;;;;;14.96;100.00;97574.78;5055922;28;20212;-89
2021/03/30 09:19:20;;;;;;;10.27;7.70;;;;;;;15.79;100.00;97571.66;5055345;28;20240;-89
2021/03/30 09:21:50;;;;;;;10.90;7.40;;;;;;;15.31;100.00;97575.66;5055289;28;20226;-89
2021/03/30 09:24:28;;;;;;;10.03;7.67;;;;;;;14.88;100.00;97577.38;5055483;28;20183;-88
2021/03/30 09:26:56;;;;;;;10.47;9.37;;;;;;;14.35;100.00;97580.84;5055305;28;20202;-88
2021/03/30 09:29:24;;;;;;;8.53;7.67;;;;;;;15.21;100.00;97583.75;5055059;28;20761;-89
2021/03/30 09:31:50;;;;;;;10.53;8.77;;;;;;;15.49;100.00;97584.41;5054967;28;20194;-89
2021/03/30 09:34:17;;;;;;;10.03;7.80;;;;;;;14.99;100.00;97569.16;5055098;28;20210;-91
2021/03/30 09:36:46;;;;;;;9.73;7.77;;;;;;;15.20;100.00;97587.34;5054770;28;20259;-89
2021/03/30 09:39:22;;;;;;;13.67;8.80;;;;;;;15.55;100.00;97583.78;5055183;28;20202;-89
2021/03/30 09:41:50;;;;;;;9.07;8.13;;;;;;;16.03;100.00;97581.50;5055055;28;20681;-88
2021/03/30 09:44:18;;;;;;;8.90;8.00;;;;;;;15.33;100.00;97585.13;5054780;28;20281;-90
2021/03/30 09:46:46;;;;;;;10.77;7.33;;;;;;;15.11;100.00;97583.00;5054708;28;20330;-88
2021/03/30 09:49:15;;;;;;;10.20;7.53;;;;;;;15.06;100.00;97561.44;5054140;28;20295;-89
2021/03/30 09:51:44;;;;;;;9.00;7.67;;;;;;;15.37;100.00;97577.69;5054630;28;20204;-89
2021/03/30 09:54:27;;;;;;;9.27;7.27;;;;;;;16.22;100.00;97568.00;5054597;28;20289;-89
2021/03/30 09:57:05;;;;;;;9.07;7.87;;;;;;;15.98;100.00;97566.09;5054749;28;20668;-89
2021/03/30 09:59:32;;;;;;;9.67;7.70;;;;;;;16.06;100.00;97555.50;5054522;28;20190;-89
2021/03/30 10:02:01;;;;;;;7.50;6.70;;;;;;;16.09;100.00;97557.84;5054549;28;20256;-90
2021/03/30 10:04:29;;;;;;;9.10;7.00;;;;;;;16.88;100.00;97548.50;5054935;28;20580;-89
2021/03/30 10:06:56;;;;;;;12.40;8.07;;;;;;;17.10;100.00;97554.94;5054332;28;20317;-89
2021/03/30 10:09:24;;;;;;;8.33;7.53;;;;;;;16.45;100.00;97546.13;5054287;28;20291;-89
2021/03/30 10:11:52;;;;;;;8.93;7.67;;;;;;;16.27;100.00;97543.63;5054261;28;20251;-89
2021/03/30 10:14:25;;;;;;;10.30;7.97;;;;;;;16.58;100.00;97544.66;5054478;28;20254;-90
2021/03/30 10:16:54;;;;;;;10.93;7.70;;;;;;;16.70;100.00;97550.47;5054089;28;20190;-89
2021/03/30 10:19:22;;;;;;;9.67;7.63;;;;;;;16.04;100.00;97540.78;5054391;28;20203;-89
2021/03/30 10:21:54;;;;;;;9.73;7.93;;;;;;;16.10;100.00;97545.41;5054081;28;20198;-89
2021/03/30 10:24:22;;;;;;;10.77;8.10;;;;;;;16.68;100.00;97547.16;5054124;28;20199;-89
2021/03/30 10:27:09;;;;;;;8.80;8.00;;;;;;;16.25;100.00;97543.78;5054150;28;20273;-89
2021/03/30 10:29:39;;;;;;;9.10;7.33;;;;;;;16.36;100.00;97546.13;5054539;28;20618;-89
2021/03/30 10:32:11;;;;;;;8.97;7.00;;;;;;;17.11;100.00;97545.16;5054423;28;20656;-89
2021/03/30 10:34:39;;;;;;;9.80;7.43;;;;;;;16.67;100.00;97537.53;5054716;28;20261;-89
2021/03/30 10:37:08;;;;;;;9.27;8.23;;;;;;;17.00;100.00;97540.19;5053631;28;20281;-90
2021/03/30 10:39:37;;;;;;;8.23;7.27;;;;;;;16.80;100.00;97532.59;5053667;28;20234;-90
2021/03/30 10:42:08;;;;;;;10.37;7.50;;;;;;;16.85;100.00;97529.41;5053540;28;20199;-89
2021/03/30 10:44:43;;;;;;;9.60;6.80;;;;;;;16.47;100.00;97536.19;5054328;28;20209;-90
2021/03/30 10:47:18;;;;;;;7.37;6.67;;;;;;;16.54;100.00;97534.53;5053493;28;20187;-89
2021/03/30 10:49:47;;;;;;;9.93;7.17;;;;;;;16.94;100.00;97519.59;5053805;28;20211;-89
2021/03/30 10:52:17;;;;;;;10.73;7.87;;;;;;;17.28;100.00;97525.53;5053489;28;20261;-90
2021/03/30 10:54:45;;;;;;;7.30;6.67;;;;;;;16.65;100.00;97527.06;5053716;28;20210;-89
2021/03/30 10:57:15;;;;;;;9.17;6.97;;;;;;;17.25;100.00;97527.69;5053554;28;20234;-90
2021/03/30 10:59:43;;;;;;;10.27;7.97;;;;;;;16.85;100.00;97511.66;5053666;28;20723;-89
2021/03/30 11:02:11;;;;;;;8.27;7.03;;;;;;;17.16;100.00;97521.56;5052425;28;20236;-90
2021/03/30 11:04:38;;;;;;;9.57;8.57;;;;;;;17.13;100.00;97510.47;5053918;28;20201;-89
2021/03/30 11:07:06;;;;;;;9.00;8.10;;;;;;;16.71;100.00;97517.63;5053894;28;20323;-89
2021/03/30 11:09:33;;;;;;;8.07;7.27;;;;;;;17.04;100.00;97522.91;5053150;28;20197;-89
2021/03/30 11:12:00;;;;;;;8.80;7.23;;;;;;;15.80;100.00;97521.13;5053427;28;20235;-89
2021/03/30 11:14:28;;;;;;;14.10;9.03;;;;;;;15.72;100.00;97523.75;5052970;28;20199;-89
2021/03/30 11:16:55;;;;;;;7.97;7.27;;;;;;;16.40;100.00;97505.00;5053231;28;20209;-90
2021/03/30 11:19:23;;;;;;;11.83;8.37;;;;;;;16.40;100.00;97505.00;5053725;28;20234;-89
2021/03/30 11:21:50;;;;;;;10.73;8.10;;;;;;;16.35;100.00;97504.69;5053000;28;20195;-90
2021/03/30 11:24:20;;;;;;;8.43;6.93;;;;;;;16.25;100.00;97503.19;5053083;28;20231;-90
2021/03/30 11:26:48;;;;;;;9.87;7.83;;;;;;;16.62;100.00;97492.88;5052971;28;20238;-90
2021/03/30 11:29:21;;;;;;;12.30;8.20;;;;;;;16.38;100.00;97477.81;5052919;28;20242;-90
2021/03/30 11:32:02;;;;;;;11.90;8.77;;;;;;;15.68;100.00;97485.28;5053320;28;20227;-89
2021/03/30 11:34:34;;;;;;;9.77;7.00;;;;;;;15.77;100.00;97489.66;5052847;28;20243;-89
2021/03/30 11:37:13;;;;;;;13.87;7.67;;;;;;;16.23;100.00;97484.75;5052811;28;20690;-89
2021/03/30 11:39:40;;;;;;;7.77;6.97;;;;;;;16.56;100.00;97468.84;5053287;28;20203;-89
2021/03/30 11:42:07;;;;;;;8.47;6.53;;;;;;;15.30;100.00;97468.88;5053267;28;20627;-90
2021/03/30 11:44:34;;;;;;;8.33;7.13;;;;;;;15.86;100.00;97453.38;5052941;28;20196;-89
2021/03/30 11:47:03;;;;;;;7.50;6.30;;;;;;;16.10;100.00;97461.34;5052918;28;20202;-90